Time;durP1;ratioP1;P1;durP2;ratioP2;P2;SDS_P1;SDS_P2;PMS_P1;PMS_P2;Temp;Humidity;BMP_temperature;BMP_pressure;BME280_temperature;BME280_humidity;BME280_pressure;Samples;Min_cycle;Max_cycle;Signal;HPM_P1;HPM_P2
2022/07/29 00:02:25;;;;;;;;;;;20.50;67.40;;;;;;5093562;28;19943;-47
2022/07/29 00:04:51;;;;;;;;;;;20.50;67.40;;;;;;5053546;28;19954;-49
2022/07/29 00:07:16;;;;;;;;;;;20.60;67.30;;;;;;5052903;28;19913;-47
2022/07/29 00:09:42;;;;;;;;;;;20.60;67.20;;;;;;5084863;28;20308;-49
2022/07/29 00:12:07;;;;;;;;;;;20.60;67.20;;;;;;5073953;28;19912;-46
2022/07/29 00:14:33;;;;;;;;;;;20.60;67.50;;;;;;5075041;28;19916;-49
2022/07/29 00:16:58;;;;;;;;;;;20.60;67.70;;;;;;5073384;28;19920;-48
2022/07/29 00:19:24;;;;;;;;;;;20.60;67.90;;;;;;5086659;28;19927;-53
2022/07/29 00:21:50;;;;;;;;;;;20.50;68.10;;;;;;5094962;28;19912;-51
2022/07/29 00:24:15;;;;;;;;;;;20.50;68.50;;;;;;5081985;28;19943;-53
2022/07/29 00:26:41;;;;;;;;;;;20.40;68.60;;;;;;5084611;28;20019;-53
2022/07/29 00:29:06;;;;;;;;;;;20.30;68.80;;;;;;5094200;28;19962;-51
2022/07/29 00:31:32;;;;;;;;;;;20.20;69.10;;;;;;5081842;28;20394;-49
2022/07/29 00:33:57;;;;;;;;;;;20.20;70.00;;;;;;5073460;28;19968;-51
2022/07/29 00:36:23;;;;;;;;;;;20.20;69.50;;;;;;5074206;28;19912;-49
2022/07/29 00:38:49;;;;;;;;;;;20.20;69.40;;;;;;5073467;28;20380;-53
2022/07/29 00:41:15;;;;;;;;;;;20.30;69.20;;;;;;5073737;28;19978;-54
2022/07/29 00:43:41;;;;;;;;;;;20.30;69.00;;;;;;5073799;28;19913;-52
2022/07/29 00:46:07;;;;;;;;;;;20.30;69.10;;;;;;5073455;28;19916;-54
2022/07/29 00:48:32;;;;;;;;;;;20.30;69.20;;;;;;5072514;28;19915;-53
2022/07/29 00:50:59;;;;;;;;;;;20.20;69.20;;;;;;5089210;28;19926;-50
2022/07/29 00:53:25;;;;;;;;;;;20.10;69.20;;;;;;5079891;28;19954;-49
2022/07/29 00:55:51;;;;;;;;;;;20.10;69.50;;;;;;5070658;28;19913;-52
2022/07/29 00:58:16;;;;;;;;;;;20.00;69.80;;;;;;5073025;28;19937;-48
2022/07/29 01:00:42;;;;;;;;;;;20.00;69.70;;;;;;5072689;28;20376;-52
2022/07/29 01:03:08;;;;;;;;;;;20.00;69.60;;;;;;5071479;28;19923;-48
2022/07/29 01:05:34;;;;;;;;;;;20.00;69.70;;;;;;5072728;28;20022;-51
2022/07/29 01:08:00;;;;;;;;;;;20.00;69.90;;;;;;5080644;28;19912;-53
2022/07/29 01:10:26;;;;;;;;;;;20.10;69.80;;;;;;5080574;28;20298;-50
2022/07/29 01:12:52;;;;;;;;;;;20.10;69.60;;;;;;5078306;28;20003;-52
2022/07/29 01:15:18;;;;;;;;;;;20.20;69.70;;;;;;5092453;28;19957;-50
2022/07/29 01:17:45;;;;;;;;;;;20.20;69.50;;;;;;5090732;28;19912;-54
2022/07/29 01:20:14;;;;;;;;;;;20.10;69.50;;;;;;5071589;28;19920;-47
2022/07/29 01:22:58;;;;;;;;;;;20.10;69.60;;;;;;5077147;28;20022;-51
2022/07/29 01:25:46;;;;;;;;;;;20.10;69.60;;;;;;5093994;28;20437;-47
2022/07/29 01:28:31;;;;;;;;;;;20.10;69.50;;;;;;5081337;28;19912;-47
2022/07/29 01:30:56;;;;;;;;;;;20.10;69.50;;;;;;5093423;28;20015;-48
2022/07/29 01:36:11;;;;;;;;;;;20.10;70.30;;;;;;5072674;28;19912;-50
2022/07/29 01:38:39;;;;;;;;;;;20.10;69.60;;;;;;5072463;28;19927;-48
2022/07/29 01:41:14;;;;;;;;;;;20.10;69.80;;;;;;5072776;28;19908;-55
2022/07/29 01:44:00;;;;;;;;;;;20.00;69.70;;;;;;5075445;28;19913;-52
2022/07/29 01:46:34;;;;;;;;;;;19.90;69.80;;;;;;5071928;28;19909;-52
2022/07/29 01:49:03;;;;;;;;;;;19.90;70.00;;;;;;5083279;28;20018;-50
2022/07/29 01:51:32;;;;;;;;;;;19.80;70.30;;;;;;5094877;28;19919;-48
2022/07/29 01:54:10;;;;;;;;;;;19.80;70.80;;;;;;5083023;28;20451;-51
2022/07/29 01:56:37;;;;;;;;;;;19.80;71.40;;;;;;5073035;28;19935;-52
2022/07/29 01:59:04;;;;;;;;;;;19.70;72.10;;;;;;5082636;28;19920;-51
2022/07/29 02:01:30;;;;;;;;;;;19.60;72.70;;;;;;5092551;28;19939;-50
2022/07/29 02:03:57;;;;;;;;;;;19.60;73.00;;;;;;5083378;28;19938;-51
2022/07/29 02:06:23;;;;;;;;;;;19.50;73.80;;;;;;5070952;28;19909;-52
2022/07/29 02:08:50;;;;;;;;;;;19.40;73.40;;;;;;5078783;28;19919;-50
2022/07/29 02:11:15;;;;;;;;;;;19.30;73.40;;;;;;5072501;28;19913;-49
2022/07/29 02:13:41;;;;;;;;;;;19.20;74.00;;;;;;5071701;28;19920;-49
2022/07/29 02:16:08;;;;;;;;;;;19.10;73.90;;;;;;5072333;28;19913;-50
2022/07/29 02:18:35;;;;;;;;;;;19.10;73.70;;;;;;5082804;28;20367;-50
2022/07/29 02:21:02;;;;;;;;;;;19.10;73.70;;;;;;5093379;28;19912;-48
2022/07/29 02:23:30;;;;;;;;;;;19.00;73.80;;;;;;5085165;28;19923;-51
2022/07/29 02:25:56;;;;;;;;;;;19.00;74.10;;;;;;5073568;28;20402;-55
2022/07/29 02:28:23;;;;;;;;;;;19.00;73.90;;;;;;5079960;28;19923;-48
2022/07/29 02:30:51;;;;;;;;;;;19.00;74.10;;;;;;5092267;28;19908;-50
2022/07/29 02:33:17;;;;;;;;;;;19.00;74.20;;;;;;5085446;28;19916;-51
2022/07/29 02:35:43;;;;;;;;;;;19.10;73.60;;;;;;5071482;28;20291;-49
2022/07/29 02:40:57;;;;;;;;;;;19.30;73.30;;;;;;5071585;28;19908;-48
2022/07/29 02:43:23;;;;;;;;;;;19.40;73.20;;;;;;5072848;28;19940;-51
2022/07/29 02:45:51;;;;;;;;;;;19.40;72.80;;;;;;5072821;28;19958;-50
2022/07/29 02:48:16;;;;;;;;;;;19.40;72.30;;;;;;5071823;28;19923;-50
2022/07/29 02:50:46;;;;;;;;;;;19.30;72.60;;;;;;5072062;28;19909;-48
2022/07/29 02:53:17;;;;;;;;;;;19.40;72.50;;;;;;5074908;28;20454;-50
2022/07/29 02:55:48;;;;;;;;;;;19.40;72.50;;;;;;5094136;28;19912;-52
2022/07/29 02:58:19;;;;;;;;;;;19.50;72.40;;;;;;5096122;28;20588;-46
2022/07/29 03:00:46;;;;;;;;;;;19.60;72.30;;;;;;5096193;28;19938;-49
2022/07/29 03:03:12;;;;;;;;;;;19.50;72.30;;;;;;5094697;28;19977;-45
2022/07/29 03:05:39;;;;;;;;;;;19.40;72.40;;;;;;5075583;28;19915;-46
2022/07/29 03:08:05;;;;;;;;;;;19.40;72.50;;;;;;5081986;28;19912;-52
2022/07/29 03:10:31;;;;;;;;;;;19.30;72.70;;;;;;5082814;28;19924;-53
2022/07/29 03:12:57;;;;;;;;;;;19.20;73.00;;;;;;5080135;28;19912;-54
2022/07/29 03:15:23;;;;;;;;;;;19.20;73.20;;;;;;5095362;28;19924;-54
2022/07/29 03:17:49;;;;;;;;;;;19.30;73.20;;;;;;5091159;28;19916;-56
2022/07/29 03:20:15;;;;;;;;;;;19.30;73.30;;;;;;5074509;28;19935;-50
2022/07/29 03:22:46;;;;;;;;;;;19.20;73.50;;;;;;5075933;28;19912;-46
2022/07/29 03:25:13;;;;;;;;;;;19.30;73.50;;;;;;5095473;28;19908;-46
2022/07/29 03:27:38;;;;;;;;;;;19.20;73.70;;;;;;5094811;28;19943;-49
2022/07/29 03:30:05;;;;;;;;;;;19.10;73.80;;;;;;5074880;28;19951;-48
2022/07/29 03:32:30;;;;;;;;;;;19.00;74.80;;;;;;5075053;28;19915;-47
2022/07/29 03:34:56;;;;;;;;;;;18.80;75.60;;;;;;5074451;28;20006;-47
2022/07/29 03:37:21;;;;;;;;;;;18.80;75.80;;;;;;5073658;28;19968;-54
2022/07/29 03:39:48;;;;;;;;;;;18.70;76.10;;;;;;5091502;28;19920;-56
2022/07/29 03:42:15;;;;;;;;;;;18.70;76.00;;;;;;5096571;28;19908;-56
2022/07/29 03:44:42;;;;;;;;;;;18.70;76.10;;;;;;5080975;28;19916;-53
2022/07/29 03:47:09;;;;;;;;;;;18.60;75.90;;;;;;5075161;28;19912;-55
2022/07/29 03:49:36;;;;;;;;;;;18.50;76.20;;;;;;5075733;28;19912;-55
2022/07/29 03:52:02;;;;;;;;;;;18.50;76.10;;;;;;5075575;28;19920;-58
2022/07/29 03:54:27;;;;;;;;;;;18.50;76.90;;;;;;5087734;28;19979;-55
2022/07/29 03:56:54;;;;;;;;;;;18.50;76.10;;;;;;5095434;28;19912;-54
2022/07/29 03:59:20;;;;;;;;;;;18.50;76.50;;;;;;5093720;28;19916;-57
2022/07/29 04:01:46;;;;;;;;;;;18.40;76.70;;;;;;5095583;28;19916;-55
2022/07/29 04:04:11;;;;;;;;;;;18.50;76.70;;;;;;5094034;28;20003;-57
2022/07/29 04:06:41;;;;;;;;;;;18.40;76.60;;;;;;5094865;28;19920;-52
2022/07/29 04:09:07;;;;;;;;;;;18.50;76.50;;;;;;5080868;28;19974;-54
2022/07/29 04:11:32;;;;;;;;;;;18.40;76.40;;;;;;5074643;28;19915;-53
2022/07/29 04:13:58;;;;;;;;;;;18.40;77.60;;;;;;5086452;28;19991;-57
2022/07/29 04:16:23;;;;;;;;;;;18.30;77.70;;;;;;5095079;28;19935;-57
2022/07/29 04:18:49;;;;;;;;;;;18.10;79.30;;;;;;5084123;28;19920;-55
2022/07/29 04:21:14;;;;;;;;;;;18.10;79.20;;;;;;5075019;28;19920;-52
2022/07/29 04:23:40;;;;;;;;;;;18.00;79.20;;;;;;5083481;28;20368;-55
2022/07/29 04:26:09;;;;;;;;;;;18.00;79.40;;;;;;5095299;28;19913;-56
2022/07/29 04:28:35;;;;;;;;;;;18.10;79.00;;;;;;5092619;28;19923;-55
2022/07/29 04:31:00;;;;;;;;;;;18.20;79.20;;;;;;5094735;28;20028;-56
2022/07/29 04:33:26;;;;;;;;;;;18.10;79.00;;;;;;5090186;28;20120;-49
2022/07/29 04:35:51;;;;;;;;;;;18.10;79.50;;;;;;5073975;28;19913;-56
2022/07/29 04:38:17;;;;;;;;;;;18.10;79.20;;;;;;5077824;28;19916;-56
2022/07/29 04:40:42;;;;;;;;;;;18.10;79.40;;;;;;5096026;28;19965;-52
2022/07/29 04:43:08;;;;;;;;;;;18.20;79.10;;;;;;5093669;28;20360;-51
2022/07/29 04:45:33;;;;;;;;;;;18.20;79.20;;;;;;5073943;28;19913;-54
2022/07/29 04:47:59;;;;;;;;;;;18.20;79.00;;;;;;5074643;28;19950;-56
2022/07/29 04:50:24;;;;;;;;;;;18.40;78.70;;;;;;5074507;28;19969;-53
2022/07/29 04:52:50;;;;;;;;;;;18.50;78.30;;;;;;5080018;28;20295;-56
2022/07/29 04:55:16;;;;;;;;;;;18.70;78.20;;;;;;5092622;28;19987;-53
2022/07/29 04:57:41;;;;;;;;;;;18.90;77.90;;;;;;5095009;28;19947;-53
2022/07/29 05:00:07;;;;;;;;;;;19.10;77.40;;;;;;5094630;28;19928;-53
2022/07/29 05:02:33;;;;;;;;;;;19.30;76.90;;;;;;5075100;28;19917;-52
2022/07/29 05:04:58;;;;;;;;;;;19.40;76.40;;;;;;5073832;28;20460;-52
2022/07/29 05:07:24;;;;;;;;;;;19.60;75.50;;;;;;5091330;28;20466;-52
2022/07/29 05:09:50;;;;;;;;;;;19.60;75.60;;;;;;5086648;28;20269;-58
2022/07/29 05:12:15;;;;;;;;;;;19.50;75.90;;;;;;5074506;28;19909;-52
2022/07/29 05:14:41;;;;;;;;;;;19.50;76.30;;;;;;5074495;28;19923;-55
2022/07/29 05:17:06;;;;;;;;;;;19.60;76.30;;;;;;5086322;28;20372;-51
2022/07/29 05:19:32;;;;;;;;;;;19.70;75.20;;;;;;5089068;28;19935;-57
2022/07/29 05:21:57;;;;;;;;;;;19.70;74.50;;;;;;5074017;28;19912;-53
2022/07/29 05:24:23;;;;;;;;;;;19.70;73.80;;;;;;5075048;28;19912;-55
2022/07/29 05:26:48;;;;;;;;;;;19.70;73.60;;;;;;5094839;28;19920;-53
2022/07/29 05:29:14;;;;;;;;;;;19.80;73.50;;;;;;5095518;28;19916;-56
2022/07/29 05:31:39;;;;;;;;;;;19.80;73.20;;;;;;5075409;28;19908;-56
2022/07/29 05:34:05;;;;;;;;;;;19.80;73.10;;;;;;5073884;28;20292;-53
2022/07/29 05:36:30;;;;;;;;;;;19.80;73.30;;;;;;5091097;28;19938;-58
2022/07/29 05:38:56;;;;;;;;;;;19.70;73.00;;;;;;5078679;28;19924;-57
2022/07/29 05:41:21;;;;;;;;;;;19.70;73.40;;;;;;5074775;28;19912;-57
2022/07/29 05:43:47;;;;;;;;;;;19.70;73.50;;;;;;5080015;28;19962;-56
2022/07/29 05:46:13;;;;;;;;;;;19.70;73.80;;;;;;5074104;28;19917;-55
2022/07/29 05:48:39;;;;;;;;;;;19.70;73.40;;;;;;5086146;28;19970;-53
2022/07/29 05:51:05;;;;;;;;;;;19.70;73.70;;;;;;5094345;28;20325;-55
2022/07/29 05:53:30;;;;;;;;;;;19.70;73.80;;;;;;5084437;28;20201;-55
2022/07/29 05:55:56;;;;;;;;;;;19.80;73.80;;;;;;5073838;28;19972;-53
2022/07/29 05:58:21;;;;;;;;;;;19.80;73.60;;;;;;5081810;28;20366;-53
2022/07/29 06:00:47;;;;;;;;;;;19.80;73.80;;;;;;5091146;28;19920;-57
2022/07/29 06:03:12;;;;;;;;;;;19.90;73.40;;;;;;5094544;28;20466;-57
2022/07/29 06:05:38;;;;;;;;;;;19.70;73.20;;;;;;5089619;28;20394;-56
2022/07/29 06:08:07;;;;;;;;;;;19.80;73.50;;;;;;5073189;28;19908;-53
2022/07/29 06:10:32;;;;;;;;;;;19.80;73.60;;;;;;5076103;28;19939;-58
2022/07/29 06:12:58;;;;;;;;;;;19.80;73.30;;;;;;5073399;28;20324;-54
2022/07/29 06:15:23;;;;;;;;;;;19.90;73.30;;;;;;5085909;28;19916;-57
2022/07/29 06:17:49;;;;;;;;;;;19.80;73.30;;;;;;5075790;28;20409;-60
2022/07/29 06:20:14;;;;;;;;;;;19.70;73.80;;;;;;5082162;28;19920;-57
2022/07/29 06:22:40;;;;;;;;;;;19.70;73.60;;;;;;5074458;28;19912;-54
2022/07/29 06:25:06;;;;;;;;;;;19.70;73.60;;;;;;5084016;28;19977;-57
2022/07/29 06:27:31;;;;;;;;;;;19.70;73.60;;;;;;5089255;28;19912;-59
2022/07/29 06:29:57;;;;;;;;;;;19.70;73.80;;;;;;5075063;28;20288;-57
2022/07/29 06:32:22;;;;;;;;;;;19.90;73.70;;;;;;5079035;28;19917;-56
2022/07/29 06:34:48;;;;;;;;;;;19.90;73.50;;;;;;5076544;28;19919;-56
2022/07/29 06:37:14;;;;;;;;;;;20.10;73.60;;;;;;5094169;28;19916;-59
2022/07/29 06:39:39;;;;;;;;;;;20.20;73.30;;;;;;5089636;28;19943;-56
2022/07/29 06:42:05;;;;;;;;;;;20.30;73.20;;;;;;5077983;28;20372;-55
2022/07/29 06:44:31;;;;;;;;;;;20.50;72.80;;;;;;5078141;28;19942;-57
2022/07/29 06:46:56;;;;;;;;;;;20.60;72.50;;;;;;5085862;28;19923;-55
2022/07/29 06:49:24;;;;;;;;;;;20.70;72.30;;;;;;5095723;28;20289;-58
2022/07/29 06:51:49;;;;;;;;;;;20.80;71.90;;;;;;5073940;28;19939;-58
2022/07/29 06:54:15;;;;;;;;;;;20.80;71.50;;;;;;5076715;28;19913;-52
2022/07/29 06:56:41;;;;;;;;;;;20.90;71.70;;;;;;5076269;28;19939;-55
2022/07/29 06:59:07;;;;;;;;;;;20.90;71.90;;;;;;5075115;28;19987;-56
2022/07/29 07:01:33;;;;;;;;;;;21.00;71.40;;;;;;5076521;28;19970;-49
2022/07/29 07:03:58;;;;;;;;;;;21.10;71.20;;;;;;5074901;28;19932;-56
2022/07/29 07:06:24;;;;;;;;;;;21.20;71.00;;;;;;5066234;28;19921;-54
2022/07/29 07:08:49;;;;;;;;;;;21.20;70.20;;;;;;5072859;28;19912;-54
2022/07/29 07:11:15;;;;;;;;;;;21.40;70.30;;;;;;5073307;28;20387;-53
2022/07/29 07:13:40;;;;;;;;;;;21.50;70.10;;;;;;5067284;28;19912;-57
2022/07/29 07:16:06;;;;;;;;;;;21.60;69.40;;;;;;5075547;28;19920;-56
2022/07/29 07:18:32;;;;;;;;;;;21.60;69.40;;;;;;5075513;28;19926;-49
2022/07/29 07:20:57;;;;;;;;;;;21.60;69.30;;;;;;5084367;28;19924;-54
2022/07/29 07:23:23;;;;;;;;;;;21.70;69.10;;;;;;5061338;28;19959;-56
2022/07/29 07:25:49;;;;;;;;;;;21.70;69.20;;;;;;5067523;28;19967;-58
2022/07/29 07:28:14;;;;;;;;;;;21.70;68.70;;;;;;5071958;28;19913;-54
2022/07/29 07:30:40;;;;;;;;;;;21.70;68.40;;;;;;5070737;28;20292;-57
2022/07/29 07:33:05;;;;;;;;;;;21.70;68.20;;;;;;5075985;28;20382;-55
2022/07/29 07:35:31;;;;;;;;;;;21.70;68.30;;;;;;5075272;28;19993;-57
2022/07/29 07:37:57;;;;;;;;;;;21.70;68.30;;;;;;5075442;28;19916;-56
2022/07/29 07:40:22;;;;;;;;;;;21.70;68.20;;;;;;5074037;28;20341;-55
2022/07/29 07:42:48;;;;;;;;;;;21.80;68.40;;;;;;5074626;28;19913;-55
2022/07/29 07:45:13;;;;;;;;;;;21.90;68.20;;;;;;5075097;28;20007;-57
2022/07/29 07:47:39;;;;;;;;;;;22.00;68.20;;;;;;5070876;28;19956;-57
2022/07/29 07:50:06;;;;;;;;;;;22.10;68.50;;;;;;5070178;28;20284;-54
2022/07/29 07:52:31;;;;;;;;;;;22.20;68.50;;;;;;5073100;28;19908;-56
2022/07/29 07:54:57;;;;;;;;;;;22.20;68.20;;;;;;5068837;28;20304;-54
2022/07/29 07:57:22;;;;;;;;;;;22.10;68.10;;;;;;5065983;28;19923;-51
2022/07/29 07:59:48;;;;;;;;;;;22.10;68.10;;;;;;5074789;28;19922;-57
2022/07/29 08:02:13;;;;;;;;;;;22.10;68.30;;;;;;5076327;28;19971;-55
2022/07/29 08:04:40;;;;;;;;;;;22.10;68.70;;;;;;5093426;28;19916;-54
2022/07/29 08:07:07;;;;;;;;;;;22.00;68.60;;;;;;5092196;28;19995;-54
2022/07/29 08:09:34;;;;;;;;;;;21.80;69.00;;;;;;5092248;28;19927;-56
2022/07/29 08:12:02;;;;;;;;;;;21.80;69.00;;;;;;5070521;28;20086;-53
2022/07/29 08:14:27;;;;;;;;;;;21.90;68.90;;;;;;5075682;28;19919;-55
2022/07/29 08:16:53;;;;;;;;;;;21.90;68.80;;;;;;5076543;28;19920;-55
2022/07/29 08:19:19;;;;;;;;;;;22.00;68.90;;;;;;5078074;28;20022;-56
2022/07/29 08:21:44;;;;;;;;;;;22.10;69.00;;;;;;5089788;28;19919;-57
2022/07/29 08:26:54;;;;;;;;;;;22.30;68.20;;;;;;5092634;28;19977;-56
2022/07/29 08:29:19;;;;;;;;;;;22.50;67.90;;;;;;5093284;28;19967;-56
2022/07/29 08:31:45;;;;;;;;;;;22.60;67.60;;;;;;5092830;28;19916;-60
2022/07/29 08:34:11;;;;;;;;;;;22.60;67.50;;;;;;5090999;28;19912;-56
2022/07/29 08:36:38;;;;;;;;;;;22.80;67.40;;;;;;5072386;28;20363;-58
2022/07/29 08:39:04;;;;;;;;;;;23.00;67.10;;;;;;5071410;28;19913;-58
2022/07/29 08:41:29;;;;;;;;;;;23.10;67.20;;;;;;5071994;28;19927;-56
2022/07/29 08:43:55;;;;;;;;;;;23.20;67.40;;;;;;5073639;28;19912;-57
2022/07/29 08:46:21;;;;;;;;;;;23.20;67.20;;;;;;5073405;28;19916;-58
2022/07/29 08:48:47;;;;;;;;;;;23.30;66.80;;;;;;5073089;28;19984;-59
2022/07/29 08:51:14;;;;;;;;;;;23.50;66.60;;;;;;5073782;28;19970;-59
2022/07/29 08:53:41;;;;;;;;;;;23.50;66.20;;;;;;5072887;28;19912;-58
2022/07/29 08:56:07;;;;;;;;;;;23.60;66.30;;;;;;5072962;28;20068;-56
2022/07/29 08:58:33;;;;;;;;;;;23.70;66.10;;;;;;5072905;28;20275;-57
2022/07/29 09:01:01;;;;;;;;;;;23.70;66.00;;;;;;5073518;28;20023;-59
2022/07/29 09:03:31;;;;;;;;;;;23.80;65.80;;;;;;5073815;28;20015;-57
2022/07/29 09:06:01;;;;;;;;;;;23.90;65.50;;;;;;5072824;28;19918;-56
2022/07/29 09:08:27;;;;;;;;;;;24.10;65.80;;;;;;5073243;28;19946;-57
2022/07/29 09:10:53;;;;;;;;;;;24.20;64.90;;;;;;5073136;28;19918;-57
2022/07/29 09:13:18;;;;;;;;;;;24.30;64.60;;;;;;5069863;28;19940;-57
2022/07/29 09:15:44;;;;;;;;;;;24.30;64.60;;;;;;5073602;28;19944;-55
2022/07/29 09:18:10;;;;;;;;;;;24.50;64.40;;;;;;5070434;28;19913;-57
2022/07/29 09:23:19;;;;;;;;;;;24.70;63.80;;;;;;5072978;28;20318;-58
2022/07/29 09:25:45;;;;;;;;;;;24.60;63.10;;;;;;5073931;28;19912;-56
2022/07/29 09:28:12;;;;;;;;;;;24.70;63.50;;;;;;5069056;28;20383;-58
2022/07/29 09:31:01;;;;;;;;;;;24.80;63.70;;;;;;5073698;28;20364;-54
2022/07/29 09:33:36;;;;;;;;;;;24.80;63.00;;;;;;5065476;28;19956;-56
2022/07/29 09:36:05;;;;;;;;;;;24.90;63.00;;;;;;5064659;28;19963;-56
2022/07/29 09:38:31;;;;;;;;;;;25.00;63.70;;;;;;5053564;28;19913;-54
2022/07/29 09:40:58;;;;;;;;;;;25.20;62.90;;;;;;5052528;28;19920;-55
2022/07/29 09:43:25;;;;;;;;;;;25.40;62.60;;;;;;5055046;28;20208;-53
2022/07/29 09:45:51;;;;;;;;;;;25.40;62.60;;;;;;5073416;28;20334;-56
2022/07/29 09:48:19;;;;;;;;;;;25.60;62.40;;;;;;5092045;28;19916;-58
2022/07/29 09:50:46;;;;;;;;;;;25.70;62.00;;;;;;5079171;28;20030;-56
2022/07/29 09:53:11;;;;;;;;;;;25.80;61.90;;;;;;5072557;28;20006;-53
2022/07/29 09:55:48;;;;;;;;;;;25.80;61.90;;;;;;5072388;28;20383;-57
2022/07/29 09:58:21;;;;;;;;;;;25.90;61.70;;;;;;5072166;28;19951;-55
2022/07/29 10:00:47;;;;;;;;;;;25.80;60.80;;;;;;5073562;28;20375;-58
2022/07/29 10:03:14;;;;;;;;;;;25.80;61.20;;;;;;5069555;28;19912;-58
2022/07/29 10:05:41;;;;;;;;;;;25.90;61.50;;;;;;5067378;28;19955;-55
2022/07/29 10:08:08;;;;;;;;;;;26.00;61.20;;;;;;5066181;28;19921;-58
2022/07/29 10:10:39;;;;;;;;;;;26.10;60.60;;;;;;5072478;28;19916;-57
2022/07/29 10:13:14;;;;;;;;;;;26.00;60.50;;;;;;5072612;28;19912;-57
2022/07/29 10:15:42;;;;;;;;;;;25.90;60.90;;;;;;5064020;28;20378;-58
2022/07/29 10:18:09;;;;;;;;;;;26.10;60.50;;;;;;5075101;28;20399;-56
2022/07/29 10:20:35;;;;;;;;;;;26.10;60.60;;;;;;5063013;28;19913;-58
2022/07/29 10:23:01;;;;;;;;;;;26.10;60.40;;;;;;5087742;28;19912;-58
2022/07/29 10:25:26;;;;;;;;;;;26.20;60.50;;;;;;5070246;28;19920;-52
2022/07/29 10:27:53;;;;;;;;;;;26.30;60.50;;;;;;5072195;28;20408;-58
2022/07/29 10:30:19;;;;;;;;;;;26.40;59.80;;;;;;5074369;28;19917;-57
2022/07/29 10:32:58;;;;;;;;;;;26.40;59.40;;;;;;5071448;28;19999;-54
2022/07/29 10:35:53;;;;;;;;;;;26.40;59.40;;;;;;5071588;28;19935;-58
2022/07/29 10:38:41;;;;;;;;;;;26.60;59.90;;;;;;5049877;28;19923;-54
2022/07/29 10:41:28;;;;;;;;;;;26.60;60.00;;;;;;5073753;28;19912;-57
2022/07/29 10:43:59;;;;;;;;;;;26.70;59.40;;;;;;5074195;28;19923;-57
2022/07/29 10:46:25;;;;;;;;;;;26.80;58.20;;;;;;5070102;28;19962;-58
2022/07/29 10:49:04;;;;;;;;;;;26.60;58.20;;;;;;5073958;28;20434;-56
2022/07/29 10:51:48;;;;;;;;;;;26.70;58.30;;;;;;5072623;28;19920;-57
2022/07/29 10:54:13;;;;;;;;;;;26.90;58.20;;;;;;5091450;28;19934;-52
2022/07/29 10:56:40;;;;;;;;;;;26.90;57.80;;;;;;5092378;28;19912;-58
2022/07/29 10:59:19;;;;;;;;;;;27.00;58.10;;;;;;5075026;28;19920;-58
2022/07/29 11:01:45;;;;;;;;;;;27.00;57.70;;;;;;5090613;28;20387;-58
2022/07/29 11:04:10;;;;;;;;;;;27.10;57.40;;;;;;5091516;28;19919;-56
2022/07/29 11:06:54;;;;;;;;;;;27.10;57.30;;;;;;5092299;28;20371;-56
2022/07/29 11:09:20;;;;;;;;;;;27.10;56.80;;;;;;5074508;28;19913;-57
2022/07/29 11:11:46;;;;;;;;;;;27.20;57.10;;;;;;5071401;28;19912;-57
2022/07/29 11:14:11;;;;;;;;;;;27.20;56.70;;;;;;5087509;28;20292;-57
2022/07/29 11:17:01;;;;;;;;;;;27.20;57.10;;;;;;5092956;28;19916;-55
2022/07/29 11:19:27;;;;;;;;;;;27.30;56.80;;;;;;5076341;28;20011;-58
2022/07/29 11:21:53;;;;;;;;;;;27.30;56.80;;;;;;5073423;28;19944;-58
2022/07/29 11:24:22;;;;;;;;;;;27.40;57.20;;;;;;5086667;28;19913;-57
2022/07/29 11:27:06;;;;;;;;;;;27.40;57.30;;;;;;5062616;28;19923;-57
2022/07/29 11:29:32;;;;;;;;;;;27.40;57.00;;;;;;5071864;28;19923;-56
2022/07/29 11:32:08;;;;;;;;;;;27.60;56.70;;;;;;5069809;28;19916;-58
2022/07/29 11:34:35;;;;;;;;;;;27.50;57.00;;;;;;5073243;28;19908;-56
2022/07/29 11:37:06;;;;;;;;;;;27.60;55.80;;;;;;5060254;28;20414;-56
2022/07/29 11:39:32;;;;;;;;;;;27.80;56.40;;;;;;5073470;28;19912;-58
2022/07/29 11:42:21;;;;;;;;;;;27.80;56.40;;;;;;5073203;28;20380;-59
2022/07/29 11:44:54;;;;;;;;;;;27.50;56.70;;;;;;5076092;28;20341;-59
2022/07/29 11:47:20;;;;;;;;;;;27.50;56.70;;;;;;5074150;28;20007;-58
2022/07/29 11:49:45;;;;;;;;;;;27.70;56.90;;;;;;5077409;28;19913;-58
2022/07/29 11:52:11;;;;;;;;;;;27.80;55.60;;;;;;5074827;28;19912;-57
2022/07/29 11:54:39;;;;;;;;;;;27.90;55.70;;;;;;5074698;28;20444;-58
2022/07/29 11:57:06;;;;;;;;;;;28.20;54.80;;;;;;5072423;28;20272;-59
2022/07/29 11:59:38;;;;;;;;;;;28.30;54.90;;;;;;5067831;28;20444;-57
2022/07/29 12:02:04;;;;;;;;;;;28.40;54.30;;;;;;5064271;28;19927;-58
2022/07/29 12:04:29;;;;;;;;;;;28.50;54.30;;;;;;5065201;28;19917;-56
2022/07/29 12:06:56;;;;;;;;;;;28.70;54.50;;;;;;5067086;28;19922;-57
2022/07/29 12:09:22;;;;;;;;;;;28.70;53.90;;;;;;5074863;28;19942;-56
2022/07/29 12:11:48;;;;;;;;;;;28.70;54.10;;;;;;5069721;28;19942;-58
2022/07/29 12:14:26;;;;;;;;;;;28.70;54.30;;;;;;5071411;28;21577;-55
2022/07/29 12:16:52;;;;;;;;;;;28.80;54.30;;;;;;5071482;28;19916;-56
2022/07/29 12:19:17;;;;;;;;;;;28.80;53.50;;;;;;5068599;28;19916;-59
2022/07/29 12:21:47;;;;;;;;;;;28.70;53.90;;;;;;5070663;28;20003;-56
2022/07/29 12:24:12;;;;;;;;;;;28.80;53.80;;;;;;5072407;28;19919;-57
2022/07/29 12:26:48;;;;;;;;;;;28.80;53.70;;;;;;5070607;28;19913;-57
2022/07/29 12:29:17;;;;;;;;;;;29.00;53.60;;;;;;5070044;28;19924;-59
2022/07/29 12:31:44;;;;;;;;;;;29.30;52.90;;;;;;5073714;28;19932;-56
2022/07/29 12:34:13;;;;;;;;;;;29.60;53.30;;;;;;5073813;28;19916;-56
2022/07/29 12:36:41;;;;;;;;;;;29.80;52.50;;;;;;5070540;28;19920;-59
2022/07/29 12:39:08;;;;;;;;;;;29.60;52.20;;;;;;5072710;28;20295;-58
2022/07/29 12:41:34;;;;;;;;;;;29.40;52.00;;;;;;5075850;28;19912;-58
2022/07/29 12:44:00;;;;;;;;;;;29.10;52.80;;;;;;5074734;28;20007;-57
2022/07/29 12:46:26;;;;;;;;;;;29.20;53.30;;;;;;5073634;28;19912;-55
2022/07/29 12:48:54;;;;;;;;;;;29.40;52.10;;;;;;5060424;28;19912;-58
2022/07/29 12:51:31;;;;;;;;;;;29.30;51.80;;;;;;5063840;28;19944;-58
2022/07/29 12:54:03;;;;;;;;;;;29.20;52.20;;;;;;5072522;28;19958;-54
2022/07/29 12:56:29;;;;;;;;;;;29.00;52.30;;;;;;5073094;28;19924;-56
2022/07/29 12:58:54;;;;;;;;;;;28.70;52.30;;;;;;5072009;28;19924;-55
2022/07/29 13:01:20;;;;;;;;;;;28.60;52.40;;;;;;5074129;28;20326;-58
2022/07/29 13:03:52;;;;;;;;;;;28.60;54.00;;;;;;5069205;28;20015;-57
2022/07/29 13:06:31;;;;;;;;;;;28.70;53.10;;;;;;5066949;28;19916;-54
2022/07/29 13:09:01;;;;;;;;;;;28.70;52.60;;;;;;5066929;28;20011;-55
2022/07/29 13:11:27;;;;;;;;;;;28.50;52.00;;;;;;5070641;28;19923;-55
2022/07/29 13:13:53;;;;;;;;;;;28.50;53.10;;;;;;5072542;28;19943;-56
2022/07/29 13:16:18;;;;;;;;;;;28.50;52.30;;;;;;5071157;28;19912;-54
2022/07/29 13:18:44;;;;;;;;;;;28.50;52.40;;;;;;5071924;28;20439;-56
2022/07/29 13:21:11;;;;;;;;;;;28.30;52.90;;;;;;5072150;28;20407;-53
2022/07/29 13:23:37;;;;;;;;;;;28.30;53.30;;;;;;5072716;28;19923;-58
2022/07/29 13:26:09;;;;;;;;;;;28.20;53.10;;;;;;5078988;28;19995;-56
2022/07/29 13:28:35;;;;;;;;;;;28.40;53.10;;;;;;5091690;28;19908;-57
2022/07/29 13:31:00;;;;;;;;;;;28.60;53.60;;;;;;5086184;28;19935;-54
2022/07/29 13:33:26;;;;;;;;;;;28.70;53.20;;;;;;5073179;28;19948;-57
2022/07/29 13:35:51;;;;;;;;;;;28.80;52.80;;;;;;5076974;28;20240;-57
2022/07/29 13:38:17;;;;;;;;;;;28.90;52.60;;;;;;5090470;28;20463;-56
2022/07/29 13:40:42;;;;;;;;;;;28.80;52.10;;;;;;5090116;28;19916;-55
2022/07/29 13:43:11;;;;;;;;;;;28.90;52.10;;;;;;5071617;28;19908;-53
2022/07/29 13:45:37;;;;;;;;;;;28.80;52.90;;;;;;5069363;28;19973;-53
2022/07/29 13:48:03;;;;;;;;;;;28.90;52.70;;;;;;5070815;28;19948;-53
2022/07/29 13:50:28;;;;;;;;;;;28.90;52.20;;;;;;5071664;28;19913;-53
2022/07/29 13:52:54;;;;;;;;;;;29.00;52.20;;;;;;5069099;28;19924;-55
2022/07/29 13:55:20;;;;;;;;;;;29.30;52.60;;;;;;5069634;28;19912;-54
2022/07/29 13:57:45;;;;;;;;;;;29.80;52.50;;;;;;5070386;28;20006;-55
2022/07/29 14:00:12;;;;;;;;;;;30.20;52.00;;;;;;5069182;28;20016;-55
2022/07/29 14:02:38;;;;;;;;;;;30.50;50.90;;;;;;5070395;28;19920;-59
2022/07/29 14:05:04;;;;;;;;;;;30.70;50.60;;;;;;5072077;28;19921;-55
2022/07/29 14:07:30;;;;;;;;;;;30.80;50.70;;;;;;5072669;28;19952;-55
2022/07/29 14:09:55;;;;;;;;;;;30.80;50.00;;;;;;5069242;28;19951;-54
2022/07/29 14:12:21;;;;;;;;;;;30.90;50.90;;;;;;5070193;28;19913;-54
2022/07/29 14:14:46;;;;;;;;;;;30.80;50.70;;;;;;5073955;28;19917;-57
2022/07/29 14:17:12;;;;;;;;;;;30.80;50.30;;;;;;5070936;28;19915;-57
2022/07/29 14:19:38;;;;;;;;;;;30.80;50.70;;;;;;5071690;28;20422;-54
2022/07/29 14:22:04;;;;;;;;;;;31.00;50.20;;;;;;5063748;28;20269;-53
2022/07/29 14:24:30;;;;;;;;;;;31.40;52.00;;;;;;5072012;28;20379;-57
2022/07/29 14:26:56;;;;;;;;;;;31.70;51.40;;;;;;5069781;28;19963;-52
2022/07/29 14:29:22;;;;;;;;;;;31.70;49.30;;;;;;5068002;28;19943;-55